Time;durP1;ratioP1;P1;durP2;ratioP2;P2;SDS_P1;SDS_P2;PMS_P1;PMS_P2;Temp;Humidity;BMP_temperature;BMP_pressure;BME280_temperature;BME280_humidity;BME280_pressure;Samples;Min_cycle;Max_cycle;Signal;HPM_P1;HPM_P2
2023/11/14 00:00:11;;;;;;;10.43;1.00;;;13.60;99.90;;;;;;5052408;28;20075;-90
2023/11/14 00:02:36;;;;;;;6.13;1.55;;;13.60;99.90;;;;;;5036218;28;20070;-93
2023/11/14 00:05:02;;;;;;;5.90;1.05;;;13.60;99.90;;;;;;5045096;28;20461;-94
2023/11/14 00:07:28;;;;;;;9.95;1.45;;;13.60;99.90;;;;;;5060794;28;20359;-95
2023/11/14 00:09:54;;;;;;;5.32;1.38;;;13.50;99.90;;;;;;5052598;28;20443;-94
2023/11/14 00:12:20;;;;;;;7.95;1.05;;;13.50;99.90;;;;;;5056993;28;20350;-94
2023/11/14 00:14:46;;;;;;;6.40;1.20;;;13.50;99.90;;;;;;5049995;28;20024;-94
2023/11/14 00:17:12;;;;;;;12.48;1.20;;;13.40;99.90;;;;;;5046066;28;20044;-95
2023/11/14 00:19:39;;;;;;;7.50;0.85;;;13.40;99.90;;;;;;5042444;28;20105;-94
2023/11/14 00:22:07;;;;;;;6.60;0.80;;;13.40;99.90;;;;;;5052057;28;20112;-94
2023/11/14 00:24:33;;;;;;;4.85;0.80;;;13.40;99.90;;;;;;5040955;28;20017;-94
2023/11/14 00:27:00;;;;;;;5.20;0.90;;;13.40;99.90;;;;;;5035963;28;20039;-93
2023/11/14 00:29:26;;;;;;;4.65;0.88;;;13.40;99.90;;;;;;5060410;28;20056;-96
2023/11/14 00:31:52;;;;;;;4.63;0.88;;;13.30;99.90;;;;;;5073887;28;20078;-86
2023/11/14 00:34:18;;;;;;;5.88;1.17;;;13.30;99.90;;;;;;5056642;28;20044;-95
2023/11/14 00:36:45;;;;;;;6.28;0.80;;;13.30;99.90;;;;;;5054001;28;20385;-96
2023/11/14 00:39:11;;;;;;;7.13;1.30;;;13.30;99.90;;;;;;5038790;28;20037;-95
2023/11/14 00:41:37;;;;;;;6.07;0.90;;;13.30;99.90;;;;;;5051720;28;20021;-91
2023/11/14 00:44:02;;;;;;;7.10;1.52;;;13.30;99.90;;;;;;5057270;28;20047;-92
2023/11/14 00:46:28;;;;;;;6.15;0.90;;;13.30;99.90;;;;;;5051350;28;20424;-93
2023/11/14 00:48:54;;;;;;;9.18;0.95;;;13.20;99.90;;;;;;5061807;28;20385;-91
2023/11/14 00:51:20;;;;;;;5.15;1.00;;;13.20;99.90;;;;;;5043915;28;20121;-92
2023/11/14 00:53:45;;;;;;;7.68;1.00;;;13.20;99.90;;;;;;5051126;28;20016;-92
2023/11/14 00:56:11;;;;;;;6.68;0.93;;;13.10;99.90;;;;;;5053878;28;20040;-92
2023/11/14 00:58:38;;;;;;;4.28;0.77;;;13.10;99.90;;;;;;5041844;28;20185;-92
2023/11/14 01:01:04;;;;;;;4.13;0.90;;;13.10;99.90;;;;;;5046028;28;20055;-91
2023/11/14 01:03:29;;;;;;;7.20;1.10;;;13.10;99.90;;;;;;5036375;28;20150;-93
2023/11/14 01:05:55;;;;;;;10.63;1.50;;;13.10;99.90;;;;;;5050327;28;20051;-92
2023/11/14 01:08:21;;;;;;;7.78;1.10;;;13.10;99.90;;;;;;5074010;28;20041;-95
2023/11/14 01:10:47;;;;;;;6.97;0.85;;;13.10;99.90;;;;;;5047439;28;20020;-96
2023/11/14 01:13:13;;;;;;;10.30;1.15;;;13.20;99.90;;;;;;5066327;28;20052;-94
2023/11/14 01:15:39;;;;;;;7.60;1.05;;;13.10;99.90;;;;;;5053953;28;20056;-94
2023/11/14 01:18:05;;;;;;;2.60;0.65;;;13.20;99.90;;;;;;5043675;28;20025;-95
2023/11/14 01:20:31;;;;;;;6.63;1.00;;;13.20;99.90;;;;;;5059651;28;20078;-93
2023/11/14 01:22:56;;;;;;;4.07;1.35;;;13.20;99.90;;;;;;5044151;28;20375;-90
2023/11/14 01:25:22;;;;;;;28.30;9.43;;;13.20;99.90;;;;;;5039607;28;20056;-86
2023/11/14 01:27:47;;;;;;;52.38;18.80;;;13.20;99.90;;;;;;5050566;28;20083;-86
2023/11/14 01:30:13;;;;;;;13.80;4.05;;;13.20;99.90;;;;;;5065103;28;20033;-87
2023/11/14 01:32:39;;;;;;;7.32;2.10;;;13.20;99.90;;;;;;5065531;28;20478;-88
2023/11/14 01:35:05;;;;;;;4.32;1.20;;;13.20;99.90;;;;;;5047318;28;20060;-86
2023/11/14 01:37:32;;;;;;;5.50;1.05;;;13.10;99.90;;;;;;5044617;28;20037;-88
2023/11/14 01:39:58;;;;;;;10.70;1.23;;;13.10;99.90;;;;;;5045204;28;20029;-84
2023/11/14 01:42:23;;;;;;;10.00;1.20;;;13.10;99.90;;;;;;5048608;28;20025;-88
2023/11/14 01:44:49;;;;;;;12.25;1.15;;;13.10;99.90;;;;;;5047435;28;20075;-86
2023/11/14 01:47:15;;;;;;;7.18;1.00;;;13.10;99.90;;;;;;5038393;28;20115;-88
2023/11/14 01:49:42;;;;;;;4.65;0.77;;;13.00;99.90;;;;;;5039189;28;20209;-88
2023/11/14 01:52:10;;;;;;;4.03;1.10;;;13.00;99.90;;;;;;5056243;28;20021;-86
2023/11/14 01:54:37;;;;;;;9.15;1.10;;;13.00;99.90;;;;;;5038730;28;20128;-87
2023/11/14 01:57:04;;;;;;;6.28;1.00;;;13.00;99.90;;;;;;5038460;28;20458;-87
2023/11/14 01:59:30;;;;;;;9.48;1.20;;;13.00;99.90;;;;;;5039072;28;20055;-86
2023/11/14 02:01:57;;;;;;;6.28;1.00;;;13.00;99.90;;;;;;5037981;28;20029;-87
2023/11/14 02:04:25;;;;;;;3.50;0.93;;;13.00;99.90;;;;;;5056469;28;20032;-87
2023/11/14 02:06:51;;;;;;;8.90;1.48;;;13.00;99.90;;;;;;5039232;28;20040;-88
2023/11/14 02:09:17;;;;;;;8.23;0.80;;;12.90;99.90;;;;;;5038372;28;20029;-86
2023/11/14 02:11:44;;;;;;;4.53;1.15;;;12.90;99.90;;;;;;5039181;28;20111;-87
2023/11/14 02:14:11;;;;;;;8.48;1.30;;;12.90;99.90;;;;;;5038197;28;20035;-86
2023/11/14 02:16:55;;;;;;;10.75;1.52;;;12.90;99.90;;;;;;5038611;28;20029;-88
2023/11/14 02:19:22;;;;;;;7.80;1.20;;;12.80;99.90;;;;;;5056319;28;20025;-87
2023/11/14 02:21:48;;;;;;;8.80;1.00;;;12.80;99.90;;;;;;5038608;28;20087;-87
2023/11/14 02:24:19;;;;;;;5.78;1.05;;;12.80;99.90;;;;;;5055704;28;20075;-87
2023/11/14 02:26:47;;;;;;;6.97;1.27;;;12.80;99.90;;;;;;5038524;28;20040;-87
2023/11/14 02:29:18;;;;;;;7.93;0.93;;;12.70;99.90;;;;;;5038310;28;20033;-88
2023/11/14 02:31:44;;;;;;;8.57;1.10;;;12.70;99.90;;;;;;5038723;28;20385;-87
2023/11/14 02:34:10;;;;;;;8.07;0.93;;;12.70;99.90;;;;;;5037361;28;20049;-87
2023/11/14 02:36:37;;;;;;;7.15;1.50;;;12.70;99.90;;;;;;5038784;28;20131;-88
2023/11/14 02:39:03;;;;;;;7.13;1.10;;;12.70;99.90;;;;;;5038064;28;20124;-89
2023/11/14 02:41:29;;;;;;;9.80;1.30;;;12.70;99.90;;;;;;5038432;28;20065;-89
2023/11/14 02:44:00;;;;;;;6.70;1.17;;;12.60;99.90;;;;;;5038337;28;20469;-88
2023/11/14 02:46:26;;;;;;;6.67;1.10;;;12.70;99.90;;;;;;5033689;28;20028;-88
2023/11/14 02:48:52;;;;;;;6.75;1.02;;;12.60;99.90;;;;;;5038307;28;20270;-89
2023/11/14 02:51:17;;;;;;;3.65;1.20;;;12.60;99.90;;;;;;5037764;28;20556;-88
2023/11/14 02:53:43;;;;;;;10.10;1.50;;;12.60;99.90;;;;;;5055905;28;20053;-88
2023/11/14 02:56:09;;;;;;;15.75;2.03;;;12.60;99.90;;;;;;5038055;28;20025;-88
2023/11/14 02:58:34;;;;;;;7.47;1.33;;;12.60;99.90;;;;;;5056108;28;20029;-88
2023/11/14 03:01:00;;;;;;;8.27;1.08;;;12.60;99.90;;;;;;5038383;28;20120;-86
2023/11/14 03:03:25;;;;;;;11.82;1.35;;;12.60;99.90;;;;;;5038112;28;20469;-88
2023/11/14 03:05:51;;;;;;;7.68;1.20;;;12.60;99.90;;;;;;5038077;28;20079;-88
2023/11/14 03:08:17;;;;;;;7.93;1.38;;;12.60;99.90;;;;;;5038433;28;20067;-89
2023/11/14 03:10:43;;;;;;;6.38;0.80;;;12.60;99.90;;;;;;5041289;28;20067;-87
2023/11/14 03:13:09;;;;;;;8.10;0.82;;;12.60;99.90;;;;;;5039112;28;20021;-87
2023/11/14 03:15:35;;;;;;;10.85;1.60;;;12.60;99.90;;;;;;5039278;28;20028;-86
2023/11/14 03:18:01;;;;;;;4.93;1.35;;;12.50;99.90;;;;;;5038200;28;20029;-85
2023/11/14 03:20:28;;;;;;;5.72;1.00;;;12.60;99.90;;;;;;5037954;28;20036;-86
2023/11/14 03:22:54;;;;;;;8.75;0.80;;;12.60;99.90;;;;;;5037733;28;20033;-86
2023/11/14 03:25:21;;;;;;;4.05;0.70;;;12.50;99.90;;;;;;5037177;28;20055;-86
2023/11/14 03:27:46;;;;;;;7.32;1.73;;;12.60;99.90;;;;;;5036924;28;20032;-87
2023/11/14 03:30:13;;;;;;;7.30;0.98;;;12.60;99.90;;;;;;5037254;28;20037;-86
2023/11/14 03:32:39;;;;;;;7.47;1.25;;;12.50;99.90;;;;;;5037480;28;20057;-88
2023/11/14 03:35:06;;;;;;;6.22;1.38;;;12.50;99.90;;;;;;5037278;28;20032;-87
2023/11/14 03:37:32;;;;;;;8.68;1.08;;;12.50;99.90;;;;;;5037896;28;20033;-88
2023/11/14 03:39:58;;;;;;;6.72;1.48;;;12.50;99.90;;;;;;5055115;28;20060;-88
2023/11/14 03:42:23;;;;;;;7.45;1.15;;;12.50;99.90;;;;;;5037202;28;20377;-88
2023/11/14 03:44:49;;;;;;;5.97;0.70;;;12.50;99.90;;;;;;5037471;28;20060;-88
2023/11/14 03:47:15;;;;;;;4.65;0.82;;;12.60;99.90;;;;;;5036193;28;20383;-87
2023/11/14 03:49:41;;;;;;;8.52;1.52;;;12.50;99.90;;;;;;5037080;28;20029;-87
2023/11/14 03:52:07;;;;;;;9.32;1.10;;;12.60;99.90;;;;;;5035926;28;20025;-87
2023/11/14 03:54:33;;;;;;;5.25;0.95;;;12.60;99.90;;;;;;5037384;28;20029;-86
2023/11/14 03:56:59;;;;;;;6.22;1.40;;;12.60;99.90;;;;;;5037090;28;20112;-86
2023/11/14 03:59:24;;;;;;;9.40;1.70;;;12.60;99.90;;;;;;5036460;28;20083;-86
2023/11/14 04:01:50;;;;;;;8.43;1.00;;;12.60;99.90;;;;;;5036573;28;20036;-86
2023/11/14 04:04:16;;;;;;;4.03;1.13;;;12.60;99.90;;;;;;5036136;28;20043;-87
2023/11/14 04:06:41;;;;;;;5.45;1.00;;;12.60;99.90;;;;;;5036729;28;20036;-87
2023/11/14 04:09:07;;;;;;;3.85;0.90;;;12.60;99.90;;;;;;5036307;28;20040;-88
2023/11/14 04:11:33;;;;;;;4.18;0.80;;;12.60;99.90;;;;;;5036666;28;20140;-87
2023/11/14 04:13:59;;;;;;;3.50;0.90;;;12.70;99.90;;;;;;5036853;28;20545;-87
2023/11/14 04:16:24;;;;;;;6.97;0.93;;;12.60;99.90;;;;;;5036335;28;20032;-88
2023/11/14 04:18:50;;;;;;;6.22;1.05;;;12.60;99.90;;;;;;5036720;28;20024;-87
2023/11/14 04:21:19;;;;;;;5.97;1.20;;;12.60;99.90;;;;;;5036226;28;20124;-86
2023/11/14 04:23:48;;;;;;;5.45;0.70;;;12.60;99.90;;;;;;5036569;28;20036;-87
2023/11/14 04:26:14;;;;;;;4.13;0.93;;;12.60;99.90;;;;;;5036192;28;20032;-89
2023/11/14 04:28:40;;;;;;;8.02;1.00;;;12.60;99.90;;;;;;5054477;28;20025;-89
2023/11/14 04:31:06;;;;;;;8.90;1.30;;;12.60;99.90;;;;;;5036084;28;20532;-89
2023/11/14 04:33:32;;;;;;;3.92;0.80;;;12.60;99.90;;;;;;5036256;28;20053;-87
2023/11/14 04:35:57;;;;;;;4.28;1.00;;;12.60;99.90;;;;;;5054106;28;20025;-88
2023/11/14 04:38:23;;;;;;;8.40;1.17;;;12.60;99.90;;;;;;5035737;28;20249;-88
2023/11/14 04:40:49;;;;;;;4.60;1.00;;;12.50;99.90;;;;;;5057857;28;20021;-89
2023/11/14 04:43:14;;;;;;;4.68;0.80;;;12.60;99.90;;;;;;5040554;28;20021;-87
2023/11/14 04:45:40;;;;;;;5.32;0.85;;;12.60;99.90;;;;;;5040855;28;20028;-85
2023/11/14 04:48:06;;;;;;;6.75;1.00;;;12.60;99.90;;;;;;5039987;28;20359;-87
2023/11/14 04:50:31;;;;;;;3.10;0.65;;;12.60;99.90;;;;;;5057870;28;20037;-88
2023/11/14 04:52:57;;;;;;;6.15;0.90;;;12.60;99.90;;;;;;5040397;28;20024;-86
2023/11/14 04:55:22;;;;;;;8.68;1.38;;;12.60;99.90;;;;;;5040082;28;20170;-87
2023/11/14 04:57:48;;;;;;;6.47;1.27;;;12.60;99.90;;;;;;5044542;28;20040;-88
2023/11/14 05:00:14;;;;;;;5.50;1.00;;;12.60;99.90;;;;;;5049344;28;20029;-87
2023/11/14 05:02:39;;;;;;;7.07;1.10;;;12.60;99.90;;;;;;5050739;28;20048;-87
2023/11/14 05:05:06;;;;;;;8.10;1.00;;;12.50;99.90;;;;;;5065647;28;20402;-83
2023/11/14 05:07:31;;;;;;;3.67;0.98;;;12.50;99.90;;;;;;5050095;28;20119;-86
2023/11/14 05:09:58;;;;;;;6.45;0.75;;;12.60;99.90;;;;;;5048719;28;20056;-87
2023/11/14 05:12:23;;;;;;;11.10;0.98;;;12.60;99.90;;;;;;5068017;28;20098;-86
2023/11/14 05:14:49;;;;;;;6.60;1.10;;;12.60;99.90;;;;;;5065558;28;20021;-86
2023/11/14 05:17:14;;;;;;;8.00;1.00;;;12.60;99.90;;;;;;5047487;28;20039;-87
2023/11/14 05:19:43;;;;;;;5.75;1.10;;;12.60;99.90;;;;;;5050781;28;20365;-89
2023/11/14 05:22:08;;;;;;;3.88;1.35;;;12.60;99.90;;;;;;5048354;28;20021;-88
2023/11/14 05:24:34;;;;;;;6.70;1.30;;;12.70;99.90;;;;;;5048815;28;20090;-86
2023/11/14 05:27:00;;;;;;;5.57;0.93;;;12.70;99.90;;;;;;5052701;28;20116;-86
2023/11/14 05:29:25;;;;;;;3.90;0.85;;;12.70;99.90;;;;;;5047985;28;20120;-86
2023/11/14 05:31:51;;;;;;;9.27;1.27;;;12.70;99.90;;;;;;5049088;28;20473;-86
2023/11/14 05:34:16;;;;;;;7.97;1.20;;;12.70;99.90;;;;;;5046493;28;20103;-87
2023/11/14 05:36:42;;;;;;;8.50;0.90;;;12.70;99.90;;;;;;5050181;28;20035;-87
2023/11/14 05:39:08;;;;;;;6.65;1.00;;;12.70;99.90;;;;;;5046846;28;20471;-85
2023/11/14 05:41:36;;;;;;;9.05;1.10;;;12.70;99.90;;;;;;5047340;28;20111;-88
2023/11/14 05:44:02;;;;;;;6.03;1.02;;;12.70;99.90;;;;;;5046811;28;20123;-87
2023/11/14 05:46:27;;;;;;;6.78;1.08;;;12.70;99.90;;;;;;5057179;28;20095;-86
2023/11/14 05:48:53;;;;;;;6.47;0.75;;;12.70;99.90;;;;;;5047334;28;20025;-87
2023/11/14 05:51:18;;;;;;;6.53;1.00;;;12.70;99.90;;;;;;5058130;28;20016;-86
2023/11/14 05:53:45;;;;;;;9.43;0.95;;;12.70;99.90;;;;;;5048937;28;20043;-87
2023/11/14 05:56:11;;;;;;;7.68;1.30;;;12.60;99.90;;;;;;5053012;28;20032;-82
2023/11/14 05:58:36;;;;;;;5.22;1.10;;;12.60;99.90;;;;;;5059681;28;20411;-88
2023/11/14 06:01:02;;;;;;;7.57;1.00;;;12.60;99.90;;;;;;5059093;28;20028;-88
2023/11/14 06:03:28;;;;;;;5.03;1.30;;;12.60;99.90;;;;;;5076446;28;20209;-88
2023/11/14 06:05:54;;;;;;;4.38;1.13;;;12.60;99.90;;;;;;5050802;28;20359;-89
2023/11/14 06:08:19;;;;;;;10.20;1.20;;;12.60;99.90;;;;;;5056125;28;20095;-88
2023/11/14 06:10:45;;;;;;;6.45;1.10;;;12.60;99.90;;;;;;5039088;28;20029;-88
2023/11/14 06:13:11;;;;;;;4.38;1.30;;;12.60;99.90;;;;;;5039104;28;20465;-87
2023/11/14 06:15:36;;;;;;;4.72;0.90;;;12.50;99.90;;;;;;5039267;28;20031;-87
2023/11/14 06:18:02;;;;;;;5.32;0.77;;;12.60;99.90;;;;;;5055183;28;20028;-87
2023/11/14 06:20:29;;;;;;;7.18;1.15;;;12.50;99.90;;;;;;5058503;28;20036;-87
2023/11/14 06:22:55;;;;;;;4.80;0.93;;;12.50;99.90;;;;;;5059287;28;20021;-87
2023/11/14 06:25:21;;;;;;;8.75;1.08;;;12.50;99.90;;;;;;5058146;28;20031;-89
2023/11/14 06:27:47;;;;;;;9.20;0.85;;;12.50;99.90;;;;;;5058985;28;20025;-89
2023/11/14 06:30:13;;;;;;;9.60;1.00;;;12.60;99.90;;;;;;5058712;28;20037;-86
2023/11/14 06:32:38;;;;;;;6.20;0.88;;;12.50;99.90;;;;;;5058270;28;20052;-86
2023/11/14 06:35:05;;;;;;;5.55;0.70;;;12.60;99.90;;;;;;5058462;28;20082;-87
2023/11/14 06:37:31;;;;;;;8.10;1.00;;;12.60;99.90;;;;;;5049123;28;20046;-87
2023/11/14 06:39:56;;;;;;;2.83;1.05;;;12.60;99.90;;;;;;5072693;28;20059;-87
2023/11/14 06:42:25;;;;;;;5.07;0.85;;;12.60;99.90;;;;;;5056915;28;20374;-88
2023/11/14 06:44:51;;;;;;;3.53;0.55;;;12.60;99.90;;;;;;5038469;28;20047;-89
2023/11/14 06:47:17;;;;;;;4.13;0.88;;;12.60;99.90;;;;;;5042940;28;20032;-89
2023/11/14 06:49:43;;;;;;;3.95;0.70;;;12.60;99.90;;;;;;5058311;28;20457;-88
2023/11/14 06:52:13;;;;;;;6.18;0.77;;;12.60;99.90;;;;;;5076233;28;20487;-88
2023/11/14 06:54:38;;;;;;;7.72;0.80;;;12.60;99.90;;;;;;5051238;28;20025;-87
2023/11/14 06:57:09;;;;;;;5.15;0.70;;;12.60;99.90;;;;;;5038114;28;20036;-87
2023/11/14 06:59:34;;;;;;;6.25;0.98;;;12.60;99.90;;;;;;5055095;28;20101;-88
2023/11/14 07:02:01;;;;;;;3.22;0.82;;;12.60;99.90;;;;;;5055832;28;20037;-89
2023/11/14 07:04:27;;;;;;;2.63;0.63;;;12.60;99.90;;;;;;5064940;28;20021;-84
2023/11/14 07:06:53;;;;;;;7.03;0.75;;;12.60;99.90;;;;;;5056901;28;20033;-84
2023/11/14 07:09:21;;;;;;;5.65;1.23;;;12.60;99.90;;;;;;5038218;28;20386;-84
2023/11/14 07:11:47;;;;;;;4.38;0.65;;;12.60;99.90;;;;;;5037494;28;20528;-84
2023/11/14 07:14:14;;;;;;;4.88;1.17;;;12.60;99.90;;;;;;5071544;28;20115;-83
2023/11/14 07:16:39;;;;;;;5.55;0.80;;;12.50;99.90;;;;;;5078029;28;20085;-84
2023/11/14 07:19:06;;;;;;;10.32;1.23;;;12.50;99.90;;;;;;5040671;28;20028;-84
2023/11/14 07:21:32;;;;;;;3.20;0.70;;;12.60;99.90;;;;;;5037377;28;20523;-84
2023/11/14 07:23:59;;;;;;;6.07;0.60;;;12.60;99.90;;;;;;5038823;28;20055;-85
2023/11/14 07:26:24;;;;;;;4.10;0.50;;;12.60;99.90;;;;;;5037897;28;20092;-84
2023/11/14 07:28:50;;;;;;;2.65;0.82;;;12.60;99.90;;;;;;5039146;28;20060;-85
2023/11/14 07:31:17;;;;;;;3.38;0.90;;;12.60;99.90;;;;;;5066571;28;20055;-84
2023/11/14 07:33:42;;;;;;;4.18;0.63;;;12.60;99.90;;;;;;5042182;28;20053;-84
2023/11/14 07:36:08;;;;;;;5.18;0.90;;;12.70;99.90;;;;;;5037133;28;20032;-84
2023/11/14 07:38:35;;;;;;;8.20;1.17;;;12.70;99.90;;;;;;5036446;28;20133;-85
2023/11/14 07:41:01;;;;;;;5.53;1.15;;;12.70;99.90;;;;;;5054797;28;20029;-85
2023/11/14 07:43:27;;;;;;;5.50;1.17;;;12.70;99.90;;;;;;5055293;28;20052;-85
2023/11/14 07:45:52;;;;;;;4.43;0.90;;;12.80;99.90;;;;;;5037824;28;20033;-84
2023/11/14 07:48:18;;;;;;;4.13;0.57;;;12.90;99.90;;;;;;5037422;28;20311;-84
2023/11/14 07:50:44;;;;;;;5.18;1.27;;;12.90;99.90;;;;;;5038280;28;20055;-87
2023/11/14 07:53:09;;;;;;;4.35;0.60;;;12.90;99.90;;;;;;5037912;28;20541;-87
2023/11/14 07:55:35;;;;;;;3.00;0.60;;;12.90;99.90;;;;;;5048631;28;20020;-86
2023/11/14 07:58:03;;;;;;;5.25;0.45;;;12.90;99.90;;;;;;5067403;28;20033;-87
2023/11/14 08:00:31;;;;;;;5.53;0.80;;;12.90;99.90;;;;;;5058248;28;20445;-87
2023/11/14 08:02:57;;;;;;;3.90;0.77;;;12.90;99.90;;;;;;5051447;28;20394;-88
2023/11/14 08:05:22;;;;;;;3.00;0.60;;;12.90;99.90;;;;;;5055987;28;20025;-89
2023/11/14 08:07:48;;;;;;;5.72;0.75;;;13.00;99.90;;;;;;5037257;28;20029;-88
2023/11/14 08:10:16;;;;;;;3.67;0.65;;;12.90;99.90;;;;;;5036911;28;20036;-87
2023/11/14 08:12:42;;;;;;;4.70;0.60;;;12.90;99.90;;;;;;5037200;28;20488;-88
2023/11/14 08:15:08;;;;;;;5.95;0.50;;;13.00;99.90;;;;;;5037107;28;20029;-88
2023/11/14 08:17:33;;;;;;;3.95;0.70;;;12.90;99.90;;;;;;5051075;28;20091;-89
2023/11/14 08:19:59;;;;;;;5.85;0.70;;;13.00;99.90;;;;;;5047603;28;20527;-88
2023/11/14 08:22:25;;;;;;;5.03;0.65;;;13.00;99.90;;;;;;5038915;28;20031;-88
2023/11/14 08:24:50;;;;;;;2.33;0.75;;;13.00;99.90;;;;;;5059700;28;20036;-89
2023/11/14 08:27:16;;;;;;;5.63;0.80;;;13.00;99.90;;;;;;5059257;28;20039;-88
2023/11/14 08:29:41;;;;;;;2.05;0.70;;;13.00;99.90;;;;;;5056340;28;20032;-89
2023/11/14 08:32:08;;;;;;;4.05;0.70;;;13.00;99.90;;;;;;5056064;28;20450;-90
2023/11/14 08:34:34;;;;;;;5.80;0.60;;;13.00;99.90;;;;;;5037236;28;20048;-91
2023/11/14 08:37:00;;;;;;;3.10;0.57;;;13.00;99.90;;;;;;5036363;28;20029;-89
2023/11/14 08:39:26;;;;;;;6.85;0.65;;;13.00;99.90;;;;;;5035977;28;20024;-88
2023/11/14 08:41:51;;;;;;;5.20;1.00;;;13.00;99.90;;;;;;5036531;28;20055;-88
2023/11/14 08:44:17;;;;;;;1.80;0.40;;;13.00;99.90;;;;;;5051247;28;20031;-89
2023/11/14 08:46:43;;;;;;;1.80;0.55;;;13.00;99.90;;;;;;5056187;28;20032;-87
2023/11/14 08:49:08;;;;;;;3.00;0.50;;;13.00;99.90;;;;;;5045223;28;20021;-88
2023/11/14 08:51:35;;;;;;;1.20;0.40;;;13.00;99.90;;;;;;5053532;28;20424;-90
2023/11/14 08:54:00;;;;;;;4.43;0.50;;;13.00;99.90;;;;;;5036189;28;20501;-89
2023/11/14 08:56:27;;;;;;;2.05;0.38;;;13.10;99.90;;;;;;5046166;28;20025;-90
2023/11/14 08:58:53;;;;;;;4.72;0.70;;;13.20;99.90;;;;;;5044980;28;20103;-86
2023/11/14 09:01:18;;;;;;;4.78;0.60;;;13.20;99.90;;;;;;5042032;28;20421;-88
2023/11/14 09:03:44;;;;;;;3.72;0.70;;;13.20;99.90;;;;;;5046068;28;20120;-90
2023/11/14 09:06:10;;;;;;;3.08;0.40;;;13.20;99.90;;;;;;5042452;28;20037;-90
2023/11/14 09:08:37;;;;;;;1.00;0.30;;;13.20;99.90;;;;;;5050194;28;20029;-90
2023/11/14 09:11:04;;;;;;;2.40;0.43;;;13.20;99.90;;;;;;5044989;28;20082;-88
2023/11/14 09:13:31;;;;;;;2.50;0.50;;;13.10;99.90;;;;;;5035701;28;20029;-88
2023/11/14 09:15:57;;;;;;;4.40;0.57;;;13.10;99.90;;;;;;5057788;28;20025;-89
2023/11/14 09:18:23;;;;;;;2.88;0.60;;;13.00;99.90;;;;;;5050188;28;20040;-88
2023/11/14 09:20:49;;;;;;;1.70;0.30;;;13.00;99.90;;;;;;5055769;28;20024;-91
2023/11/14 09:23:15;;;;;;;0.88;0.30;;;13.10;99.90;;;;;;5073826;28;20032;-91
2023/11/14 09:25:41;;;;;;;5.03;0.50;;;13.20;99.90;;;;;;5050248;28;20024;-90
2023/11/14 09:28:10;;;;;;;3.47;0.60;;;13.20;99.90;;;;;;5049257;28;20028;-89
2023/11/14 09:30:35;;;;;;;3.92;0.40;;;13.20;99.90;;;;;;5050446;28;20030;-89
2023/11/14 09:33:01;;;;;;;2.08;0.38;;;13.30;99.90;;;;;;5042833;28;20434;-90
2023/11/14 09:35:27;;;;;;;3.75;0.50;;;13.20;99.90;;;;;;5047318;28;20029;-90
2023/11/14 09:37:54;;;;;;;1.55;0.55;;;13.30;99.90;;;;;;5045005;28;20017;-89
2023/11/14 09:40:22;;;;;;;3.53;0.95;;;13.30;99.90;;;;;;5049268;28;20032;-92
2023/11/14 09:42:51;;;;;;;2.10;0.28;;;13.20;99.90;;;;;;5046744;28;20017;-92
2023/11/14 09:45:18;;;;;;;2.25;0.30;;;13.20;99.90;;;;;;5048200;28;20040;-89
2023/11/14 09:47:44;;;;;;;2.63;0.43;;;13.10;99.90;;;;;;5056822;28;20037;-96
2023/11/14 09:50:11;;;;;;;1.45;0.30;;;13.10;99.90;;;;;;5039207;28;20385;-88
2023/11/14 09:52:37;;;;;;;2.08;0.50;;;13.20;99.90;;;;;;5037779;28;20026;-87
2023/11/14 09:55:05;;;;;;;3.13;0.55;;;13.20;99.90;;;;;;5037682;28;20030;-88
2023/11/14 09:57:32;;;;;;;2.97;0.70;;;13.20;99.90;;;;;;5037129;28;20033;-86
2023/11/14 09:59:59;;;;;;;2.13;0.30;;;13.20;99.90;;;;;;5036547;28;20026;-88
2023/11/14 10:02:25;;;;;;;4.32;0.75;;;13.20;99.90;;;;;;5051820;28;20048;-84
2023/11/14 10:04:51;;;;;;;2.78;0.63;;;13.10;99.90;;;;;;5054323;28;20029;-86
2023/11/14 10:07:19;;;;;;;3.58;0.50;;;13.20;99.90;;;;;;5044757;28;20035;-85
2023/11/14 10:09:46;;;;;;;3.03;0.47;;;13.20;99.90;;;;;;5052104;28;20124;-85
2023/11/14 10:12:12;;;;;;;3.47;0.45;;;13.20;99.90;;;;;;5049038;28;20117;-85
2023/11/14 10:14:46;;;;;;;1.55;0.40;;;13.10;99.90;;;;;;5049255;28;20052;-84
2023/11/14 10:17:17;;;;;;;3.08;0.57;;;13.20;99.90;;;;;;5049956;28;20067;-85
2023/11/14 10:20:01;;;;;;;4.20;0.45;;;13.10;99.90;;;;;;5047189;28;20029;-85
2023/11/14 10:22:27;;;;;;;1.85;0.50;;;13.10;99.90;;;;;;5048617;28;20063;-85
2023/11/14 10:24:53;;;;;;;2.58;0.40;;;13.10;99.90;;;;;;5045329;28;20091;-85
2023/11/14 10:27:36;;;;;;;3.13;0.38;;;13.10;99.90;;;;;;5045975;28;20462;-85
2023/11/14 10:30:03;;;;;;;1.98;0.38;;;13.10;99.90;;;;;;5043260;28;20025;-85
2023/11/14 10:32:30;;;;;;;1.90;0.40;;;13.10;99.90;;;;;;5046118;28;20048;-85
2023/11/14 10:34:56;;;;;;;3.85;0.80;;;13.10;99.90;;;;;;5050187;28;20055;-85
2023/11/14 10:37:34;;;;;;;3.33;0.47;;;13.10;99.90;;;;;;5054193;28;20028;-85
2023/11/14 10:40:06;;;;;;;1.80;0.45;;;13.10;99.90;;;;;;5057970;28;20473;-83
2023/11/14 10:42:31;;;;;;;4.75;0.50;;;13.20;99.90;;;;;;5057433;28;20029;-83
2023/11/14 10:45:06;;;;;;;4.35;0.68;;;13.10;99.90;;;;;;5052644;28;20040;-88
2023/11/14 10:47:40;;;;;;;2.20;0.40;;;13.10;99.90;;;;;;5052615;28;20515;-86
2023/11/14 10:50:23;;;;;;;2.20;0.40;;;13.10;99.90;;;;;;5056416;28;20017;-89
2023/11/14 10:52:50;;;;;;;1.27;0.60;;;13.10;99.90;;;;;;5056180;28;20130;-86
2023/11/14 10:55:16;;;;;;;5.18;0.60;;;13.10;99.90;;;;;;5057264;28;20024;-87
2023/11/14 10:57:43;;;;;;;2.58;0.65;;;13.10;99.90;;;;;;5041493;28;20029;-91
2023/11/14 11:00:11;;;;;;;2.40;0.35;;;13.10;99.90;;;;;;5051290;28;20032;-87
2023/11/14 11:02:39;;;;;;;5.90;0.50;;;13.10;99.90;;;;;;5042984;28;20086;-87
2023/11/14 11:05:05;;;;;;;3.83;0.50;;;13.10;99.90;;;;;;5048110;28;20028;-87
2023/11/14 11:07:31;;;;;;;2.85;0.43;;;13.20;99.90;;;;;;5041927;28;20604;-87
2023/11/14 11:09:58;;;;;;;4.60;0.50;;;13.30;99.90;;;;;;5037896;28;20028;-87
2023/11/14 11:12:26;;;;;;;3.00;0.40;;;13.40;99.90;;;;;;5042672;28;20024;-87
2023/11/14 11:14:53;;;;;;;2.25;0.50;;;13.40;99.90;;;;;;5061506;28;20028;-87
2023/11/14 11:17:42;;;;;;;3.63;0.45;;;13.50;99.90;;;;;;5077856;28;20028;-84
2023/11/14 11:20:21;;;;;;;1.88;0.50;;;13.60;99.90;;;;;;5046124;28;20029;-87
2023/11/14 11:23:10;;;;;;;3.17;0.47;;;13.60;99.90;;;;;;5060739;28;20373;-87
2023/11/14 11:25:37;;;;;;;3.00;0.70;;;13.60;99.90;;;;;;5067868;28;20354;-88
2023/11/14 11:28:32;;;;;;;6.78;0.68;;;13.60;99.90;;;;;;5050639;28;20093;-92
2023/11/14 11:31:04;;;;;;;2.55;0.40;;;13.80;99.90;;;;;;5042899;28;20029;-85
2023/11/14 11:33:42;;;;;;;2.40;0.50;;;13.90;99.90;;;;;;5045290;28;20071;-84
2023/11/14 11:36:26;;;;;;;2.45;0.40;;;13.90;99.90;;;;;;5053331;28;20025;-86
2023/11/14 11:39:00;;;;;;;1.60;0.40;;;13.90;99.90;;;;;;5050955;28;20074;-85
2023/11/14 11:41:27;;;;;;;9.20;0.70;;;14.00;99.90;;;;;;5052525;28;20124;-85
2023/11/14 11:44:06;;;;;;;3.70;0.30;;;13.90;99.90;;;;;;5040242;28;20086;-85
2023/11/14 11:46:32;;;;;;;3.22;0.20;;;13.90;99.90;;;;;;5045372;28;20090;-85
2023/11/14 11:49:10;;;;;;;3.55;0.60;;;13.90;99.90;;;;;;5043761;28;20025;-85
2023/11/14 11:51:37;;;;;;;3.25;0.50;;;13.90;99.90;;;;;;5051710;28;20036;-85
2023/11/14 11:54:27;;;;;;;3.67;0.50;;;14.00;99.90;;;;;;5049710;28;20079;-85
2023/11/14 11:57:06;;;;;;;5.85;0.52;;;14.10;99.90;;;;;;5063702;28;20024;-85
2023/11/14 11:59:40;;;;;;;1.80;0.38;;;14.10;99.90;;;;;;5040641;28;20082;-86
2023/11/14 12:02:11;;;;;;;5.40;0.65;;;14.10;99.90;;;;;;5039868;28;20024;-86
2023/11/14 12:04:38;;;;;;;2.15;0.60;;;14.30;99.90;;;;;;5055339;28;20033;-86
2023/11/14 12:07:04;;;;;;;2.95;0.57;;;14.30;99.90;;;;;;5051890;28;20036;-87
2023/11/14 12:09:33;;;;;;;1.38;0.40;;;14.50;99.90;;;;;;5062071;28;20489;-86
2023/11/14 12:12:00;;;;;;;1.63;0.40;;;14.60;99.90;;;;;;5062857;28;20139;-86
2023/11/14 12:14:29;;;;;;;2.65;0.40;;;14.80;99.90;;;;;;5061616;28;20420;-84
2023/11/14 12:16:55;;;;;;;1.95;0.50;;;14.80;99.90;;;;;;5056218;28;20025;-83
2023/11/14 12:19:21;;;;;;;3.50;0.70;;;14.70;99.90;;;;;;5044086;28;20033;-87
2023/11/14 12:21:47;;;;;;;4.97;0.50;;;14.70;99.90;;;;;;5046566;28;20056;-87
2023/11/14 12:24:14;;;;;;;2.50;0.35;;;14.60;99.90;;;;;;5046516;28;20064;-86
2023/11/14 12:26:40;;;;;;;1.65;0.40;;;14.60;99.90;;;;;;5046804;28;20445;-86
2023/11/14 12:29:10;;;;;;;7.18;0.47;;;14.60;99.90;;;;;;5045480;28;20036;-85
2023/11/14 12:31:36;;;;;;;2.47;0.50;;;14.50;99.90;;;;;;5045451;28;20052;-88
2023/11/14 12:34:04;;;;;;;2.17;0.35;;;14.50;99.90;;;;;;5047412;28;20052;-88
2023/11/14 12:36:30;;;;;;;3.08;0.50;;;14.50;99.90;;;;;;5053108;28;20024;-85
2023/11/14 12:39:11;;;;;;;1.67;0.98;;;14.50;99.90;;;;;;5063474;28;20025;-85
2023/11/14 12:41:42;;;;;;;3.13;0.50;;;14.50;99.90;;;;;;5056514;28;20032;-89
2023/11/14 12:44:07;;;;;;;2.45;0.70;;;14.50;99.90;;;;;;5040969;28;20492;-84